Weather reports worldwide

Advertisment
Kinbrace, United Kingdom (99016): temperature & dewpoint: 21.04.2017 00:00:00 - 27.04.2017 00:00:00 (BST)Kinbrace, United Kingdom (99016): wind speed & gusts: 21.04.2017 00:00:00 - 27.04.2017 00:00:00 (BST)Kinbrace, United Kingdom (99016): wind direction: 21.04.2017 00:00:00 - 27.04.2017 00:00:00 (BST)Kinbrace, United Kingdom (99016): precipitation: 21.04.2017 00:00:00 - 27.04.2017 00:00:00 (BST)
Date & Time tt [°C] td [°C] ff [km/h] ff [kn] fx [km/h] fx [kn] dd rr [mm]
27.04.2017 00:00:00 - - - - - - - 0,0
26.04.2017 23:00:00 6,0 5,0 29 16 46 25 NNW -
26.04.2017 22:00:00 6,7 5,6 26 14 - - NNW 0,4
26.04.2017 21:00:00 6,0 5,1 21 11 - - NW 0,0
26.04.2017 20:00:00 6,4 4,4 18 10 - - NW 0,0
26.04.2017 19:00:00 6,3 4,6 15 8 - - NW 0,2
26.04.2017 18:00:00 7,1 2,7 26 14 - - NW 0,0
26.04.2017 17:00:00 8,2 2,3 22 12 - - NW 0,0
26.04.2017 16:00:00 7,9 2,1 21 11 - - NNW 0,0
26.04.2017 15:00:00 7,4 2,3 22 12 - - NW 0,0
26.04.2017 14:00:00 7,3 1,9 18 10 - - WNW 0,0
26.04.2017 13:00:00 5,8 2,2 15 8 - - NW 0,0
26.04.2017 12:00:00 5,9 2,3 18 10 - - WNW 0,0
26.04.2017 11:00:00 4,7 2,3 13 7 - - NW 0,0
26.04.2017 10:00:00 3,8 2,6 13 7 - - NW 0,0
26.04.2017 09:00:00 1,9 0,9 13 7 - - WNW 1,2
26.04.2017 08:00:00 0,7 0,3 9 5 - - N 0,0
26.04.2017 07:00:00 0,4 -0,1 11 6 - - NW 0,0
26.04.2017 06:00:00 0,1 -1,6 5 3 - - NNE 0,0
26.04.2017 05:00:00 0,3 -1,8 13 7 - - N 0,0
26.04.2017 04:00:00 -1,0 -2,4 2 1 - - S 0,0
26.04.2017 03:00:00 0,5 -1,0 4 2 - - N 0,2
26.04.2017 02:00:00 0,8 -0,3 8 4 - - N 0,4
26.04.2017 01:00:00 1,5 -0,6 13 7 - - N 0,2
26.04.2017 00:00:00 1,0 -0,5 21 11 - - N 0,0
25.04.2017 23:00:00 0,7 -0,3 18 10 - - N 0,0
25.04.2017 22:00:00 1,1 -1,8 9 5 - - N 0,0
25.04.2017 21:00:00 2,5 -1,0 18 10 - - NNW 0,0
25.04.2017 20:00:00 3,0 -1,7 22 12 - - N 0,0
25.04.2017 19:00:00 4,1 -2,1 26 14 50 27 N 0,0
25.04.2017 18:00:00 5,0 -2,2 34 18 52 28 N 0,0
25.04.2017 17:00:00 5,1 -0,9 34 18 54 29 N -
25.04.2017 16:00:00 6,0 0,5 35 19 55 30 N 0,6
25.04.2017 15:00:00 4,3 0,7 26 14 63 34 N 0,2
25.04.2017 14:00:00 5,4 1,2 34 18 59 32 N 0,0
25.04.2017 13:00:00 3,6 0,4 42 23 67 36 N 0,2
25.04.2017 12:00:00 5,1 0,7 37 20 61 33 N 0,2
25.04.2017 11:00:00 3,6 0,7 37 20 63 34 N 0,4
25.04.2017 10:00:00 3,7 1,9 35 19 65 35 N 0,4
25.04.2017 09:00:00 2,9 1,0 31 17 55 30 N 2,4
25.04.2017 08:00:00 2,1 0,4 28 15 57 31 N 0,8
25.04.2017 07:00:00 2,0 0,1 35 19 57 31 N 0,8
25.04.2017 06:00:00 1,7 -0,3 34 18 61 33 N 0,8
25.04.2017 05:00:00 2,0 -0,6 37 20 63 34 N 0,8
25.04.2017 04:00:00 1,1 -0,2 37 20 72 39 N 0,4
25.04.2017 03:00:00 1,6 -0,2 21 11 57 31 N 0,6
25.04.2017 02:00:00 1,7 0,0 24 13 - - N 0,2
25.04.2017 01:00:00 0,9 0,4 11 6 - - N 0,0
25.04.2017 00:00:00 0,4 0,0 5 3 - - NW 0,0
24.04.2017 23:00:00 0,9 -0,6 16 9 - - N 0,0
24.04.2017 22:00:00 -0,2 -0,9 11 6 - - N 0,0
24.04.2017 21:00:00 0,3 -0,6 18 10 - - N 0,0
24.04.2017 20:00:00 0,7 -0,7 18 10 - - NE 0,8
24.04.2017 19:00:00 0,5 0,0 5 3 - - NNW 0,4
24.04.2017 18:00:00 2,5 1,3 21 11 - - WNW 0,0
24.04.2017 17:00:00 1,9 0,9 13 7 - - WNW 0,2
24.04.2017 16:00:00 2,3 0,0 34 18 46 25 NNW 0,0
24.04.2017 15:00:00 3,1 -1,6 31 17 - - NNW 2,2
24.04.2017 14:00:00 1,2 -0,4 29 16 - - N 2,2
24.04.2017 13:00:00 0,4 0,0 31 17 48 26 N 0,8
24.04.2017 12:00:00 0,4 -0,2 31 17 48 26 N 0,8
24.04.2017 11:00:00 1,5 0,3 22 12 - - NW 0,2
24.04.2017 10:00:00 1,7 0,3 13 7 - - N 0,2
24.04.2017 09:00:00 4,4 2,5 9 5 - - NNW 0,0
24.04.2017 08:00:00 3,2 1,9 5 3 - - SSW 0,0
24.04.2017 07:00:00 0,9 0,2 4 2 - - E 0,2
24.04.2017 06:00:00 1,2 0,5 5 3 - - NNE 0,2
24.04.2017 05:00:00 1,4 0,9 2 1 - - SW 0,8
24.04.2017 04:00:00 1,3 0,5 15 8 - - NW 1,0
24.04.2017 03:00:00 1,9 1,1 5 3 - - WNW 1,4
24.04.2017 02:00:00 2,7 1,7 13 7 - - N 0,2
24.04.2017 01:00:00 2,7 1,6 18 10 46 25 N 0,0
24.04.2017 00:00:00 4,3 2,7 37 20 54 29 NNW 0,0
23.04.2017 23:00:00 4,8 2,9 41 22 63 34 NW 0,0
23.04.2017 22:00:00 5,6 3,7 37 20 55 30 WNW 0,2
23.04.2017 21:00:00 6,9 5,7 35 19 55 30 WNW 0,8
23.04.2017 20:00:00 8,3 5,3 26 14 50 27 W 0,2
23.04.2017 19:00:00 7,4 6,2 24 13 - - W 0,2
23.04.2017 18:00:00 8,3 5,4 31 17 54 29 W 0,0
23.04.2017 17:00:00 8,8 5,3 26 14 57 31 W 0,0
23.04.2017 16:00:00 8,8 4,0 34 18 59 32 W 0,0
23.04.2017 15:00:00 8,7 3,2 35 19 55 30 W 0,0
23.04.2017 14:00:00 8,9 3,4 29 16 52 28 W 0,0
23.04.2017 13:00:00 8,0 4,0 24 13 - - W 0,0
23.04.2017 12:00:00 8,4 3,8 29 16 46 25 W 0,0
23.04.2017 11:00:00 8,3 3,5 28 15 - - WNW 0,0
23.04.2017 10:00:00 8,7 6,0 11 6 - - NNW -
23.04.2017 09:00:00 7,0 5,5 11 6 - - WNW 0,0
23.04.2017 08:00:00 6,4 4,1 18 10 - - WNW 0,0
23.04.2017 07:00:00 4,7 3,5 4 2 - - WNW 0,0
23.04.2017 06:00:00 4,1 2,6 13 7 - - W 0,0
23.04.2017 05:00:00 4,3 2,4 13 7 - - W 0,2
23.04.2017 04:00:00 3,7 2,1 8 4 - - WSW 0,0
23.04.2017 03:00:00 3,2 1,9 5 3 - - W 0,0
23.04.2017 02:00:00 2,1 1,1 0 0 - - N 0,0
23.04.2017 01:00:00 2,0 0,9 8 4 - - NNW 0,0
23.04.2017 00:00:00 2,9 2,0 5 3 - - N 0,2
22.04.2017 23:00:00 3,1 1,3 4 2 - - WNW 0,0
22.04.2017 22:00:00 3,2 1,0 2 1 - - NW 0,0
22.04.2017 21:00:00 4,2 1,4 8 4 - - NNW 0,0
22.04.2017 20:00:00 5,7 1,4 16 9 - - NNW 0,0
22.04.2017 19:00:00 6,7 0,7 26 14 - - NW 0,0
22.04.2017 18:00:00 6,0 2,7 22 12 - - NW 0,0
22.04.2017 17:00:00 6,5 2,3 28 15 50 27 NNW 0,6
22.04.2017 16:00:00 6,2 2,8 24 13 - - WNW 0,0
22.04.2017 15:00:00 7,3 2,7 31 17 48 26 NW 0,0
22.04.2017 14:00:00 6,7 0,3 29 16 - - NNW 0,0
22.04.2017 13:00:00 8,2 1,4 18 10 - - NW 0,0
22.04.2017 12:00:00 6,5 1,3 22 12 - - NW 0,0
22.04.2017 11:00:00 5,8 1,2 24 13 - - NW 0,0
22.04.2017 10:00:00 4,7 1,6 21 11 - - NW 0,0
22.04.2017 09:00:00 4,3 1,6 11 6 - - NW 0,0
22.04.2017 08:00:00 3,2 2,2 8 4 - - NW -
22.04.2017 07:00:00 2,3 1,4 5 3 - - N 0,0
22.04.2017 06:00:00 2,0 1,0 5 3 - - NNW 0,0
22.04.2017 05:00:00 2,6 1,5 18 10 - - WNW 0,0
22.04.2017 04:00:00 2,0 1,2 8 4 - - NNW 0,0
22.04.2017 03:00:00 2,8 1,6 15 8 - - NW 0,0
22.04.2017 02:00:00 2,0 0,7 0 0 - - N 0,0
22.04.2017 01:00:00 1,9 0,7 2 1 - - NE 0,0
22.04.2017 00:00:00 0,7 -0,5 4 2 - - NNW 0,0
21.04.2017 23:00:00 2,1 1,4 5 3 - - NNW 0,0
21.04.2017 22:00:00 3,0 2,3 15 8 - - NNW 0,2
21.04.2017 21:00:00 3,1 1,7 28 15 50 27 NW 0,2
21.04.2017 20:00:00 4,4 2,5 16 9 50 27 NW 0,2
21.04.2017 19:00:00 5,1 1,0 29 16 - - NNW 0,0
21.04.2017 18:00:00 7,3 0,3 29 16 52 28 NNW 0,0
21.04.2017 17:00:00 7,8 1,6 34 18 52 28 NW -
21.04.2017 16:00:00 6,3 2,7 31 17 50 27 NNW 0,0
21.04.2017 15:00:00 7,8 1,5 31 17 61 33 NNW 0,0
21.04.2017 14:00:00 8,8 2,0 39 21 67 36 NW 0,0
21.04.2017 13:00:00 9,1 3,0 39 21 68 37 NNW 0,0
21.04.2017 12:00:00 8,0 2,9 42 23 61 33 NW 0,0
21.04.2017 11:00:00 7,2 4,3 35 19 55 30 NW 0,0
21.04.2017 10:00:00 6,9 4,7 26 14 46 25 NW 0,0
21.04.2017 09:00:00 6,1 4,8 24 13 - - NNW 0,6
21.04.2017 08:00:00 5,7 4,6 21 11 - - NW 0,8
21.04.2017 07:00:00 5,7 4,8 22 12 - - NNW -
21.04.2017 06:00:00 6,0 5,4 2 1 - - WSW 0,6
21.04.2017 05:00:00 6,4 5,8 13 7 - - NNW 0,6
21.04.2017 04:00:00 6,6 5,9 16 9 - - N 0,6
21.04.2017 03:00:00 7,9 7,6 11 6 - - NW 0,6
21.04.2017 02:00:00 8,2 7,9 13 7 - - NW 0,4
21.04.2017 01:00:00 8,4 8,0 13 7 - - NW 0,2
21.04.2017 00:00:00 8,8 8,1 15 8 - - NW 0,0

tt = temperature
td = dewpoint
ff = wind speed
fx = gusts
dd = wind direction
rr = precipitation

Next stations